CheckWX is a tool to help pilots better visualize weather data.  It is not intended as a substitute for an official pre-flight weather briefing.

04:04:50 UTC

HESH METAR
Sharm El Sheikh International Airport
Sharm el-Sheikh, Egypt
Current

1 hour ago

HESH 250300Z 01016KT CAVOK 20/09 Q1013 NOSIG
Observed
May-25 @ 03:00 UTC
Wind
  • 010° at 16 KTS
Visibility
10,000+ meters
Flight Rules
VFR
Cloud Levels
  • Clear skies
Temperature
20°C / 68°F
Dewpoint
C / 48°F
Humidity
49%
Altimeter
29.91" Hg
Pressure
1012.92 hPa
Previous

2 hours ago

HESH 250200Z 01013KT CAVOK 21/08 Q1013 NOSIG
Observed
May-25 @ 02:00 UTC
Wind
  • 010° at 13 KTS
Visibility
10,000+ meters
Flight Rules
VFR
Cloud Levels
  • Clear skies
Temperature
21°C / 70°F
Dewpoint
C / 46°F
Humidity
43%
Altimeter
29.91" Hg
Pressure
1012.92 hPa
Previous

3 hours ago

HESH 250100Z 36013KT CAVOK 21/06 Q1012 NOSIG
Observed
May-25 @ 01:00 UTC
Wind
  • 360° at 13 KTS
Visibility
10,000+ meters
Flight Rules
VFR
Cloud Levels
  • Clear skies
Temperature
21°C / 70°F
Dewpoint
C / 43°F
Humidity
38%
Altimeter
29.88" Hg
Pressure
1011.92 hPa